createdAt,value
2024-01-11T00:00:48.205Z,5.02
2024-01-11T00:03:15.151Z,5.01
2024-01-11T00:05:43.211Z,5.00
2024-01-11T00:08:10.002Z,5.00
2024-01-11T00:10:37.295Z,4.98
2024-01-11T00:13:05.160Z,4.99
2024-01-11T00:15:31.930Z,4.99
2024-01-11T00:17:58.867Z,4.99
2024-01-11T00:20:25.658Z,4.98
2024-01-11T00:22:52.457Z,4.96
2024-01-11T00:25:19.240Z,4.94
2024-01-11T00:27:45.933Z,4.92
2024-01-11T00:30:12.691Z,4.90
2024-01-11T00:32:39.570Z,4.88
2024-01-11T00:35:07.169Z,4.86
2024-01-11T00:37:33.917Z,4.84
2024-01-11T00:40:00.598Z,4.84
2024-01-11T00:42:27.274Z,4.83
2024-01-11T00:44:54.201Z,4.82
2024-01-11T00:47:20.948Z,4.80
2024-01-11T00:49:47.692Z,4.78
2024-01-11T00:52:15.186Z,4.76
2024-01-11T00:54:42.118Z,4.73
2024-01-11T00:57:08.884Z,4.69
2024-01-11T00:59:35.668Z,4.65
2024-01-11T01:02:02.485Z,4.63
2024-01-11T01:04:29.200Z,4.60
2024-01-11T01:06:55.846Z,4.58
2024-01-11T01:09:22.523Z,4.55
2024-01-11T01:11:49.265Z,4.55
2024-01-11T01:14:16.090Z,4.52
2024-01-11T01:16:42.994Z,4.50
2024-01-11T01:19:09.904Z,4.48
2024-01-11T01:21:36.721Z,4.47
2024-01-11T01:24:03.950Z,4.45
2024-01-11T01:26:30.705Z,4.45
2024-01-11T01:28:57.502Z,4.43
2024-01-11T01:31:24.220Z,4.43
2024-01-11T01:33:50.943Z,4.42
2024-01-11T01:36:17.809Z,4.42
2024-01-11T01:38:44.713Z,4.42
2024-01-11T01:41:11.538Z,4.40
2024-01-11T01:43:38.326Z,4.39
2024-01-11T01:46:06.940Z,4.39
2024-01-11T01:48:34.312Z,4.40
2024-01-11T01:51:01.221Z,4.39
2024-01-11T01:53:29.876Z,4.40
2024-01-11T01:55:57.323Z,4.40
2024-01-11T01:58:24.234Z,4.41
2024-01-11T02:00:52.687Z,4.40
2024-01-11T02:03:19.876Z,4.40
2024-01-11T02:05:47.587Z,4.41
2024-01-11T02:08:18.774Z,4.40
2024-01-11T02:10:47.240Z,4.42
2024-01-11T02:13:14.481Z,4.41
2024-01-11T02:15:43.146Z,4.40
2024-01-11T02:18:10.019Z,4.42
2024-01-11T02:20:36.870Z,4.45
2024-01-11T02:23:09.194Z,4.42
2024-01-11T02:25:36.169Z,4.43
2024-01-11T02:28:03.008Z,4.45
2024-01-11T02:30:29.790Z,4.46
2024-01-11T02:32:56.908Z,4.46
2024-01-11T02:35:25.656Z,4.45
2024-01-11T02:37:52.810Z,4.48
2024-01-11T02:40:20.453Z,4.48
2024-01-11T02:42:47.482Z,4.49
2024-01-11T02:45:14.559Z,4.49
2024-01-11T02:47:41.846Z,4.52
2024-01-11T02:50:09.514Z,4.55
2024-01-11T02:52:36.628Z,4.59
2024-01-11T02:55:03.443Z,4.59
2024-01-11T02:57:30.373Z,4.60
2024-01-11T02:59:57.141Z,4.63
2024-01-11T03:02:24.011Z,4.63
2024-01-11T03:04:50.822Z,4.60
2024-01-11T03:07:17.614Z,4.60
2024-01-11T03:09:44.331Z,4.60
2024-01-11T03:12:11.055Z,4.60
2024-01-11T03:14:37.856Z,4.60
2024-01-11T03:17:05.980Z,4.61
2024-01-11T03:19:32.743Z,4.64
2024-01-11T03:21:59.529Z,4.67
2024-01-11T03:24:26.350Z,4.68
2024-01-11T03:26:53.049Z,4.70
2024-01-11T03:29:19.760Z,4.71
2024-01-11T03:31:46.648Z,4.72
2024-01-11T03:34:13.757Z,4.72
2024-01-11T03:36:41.383Z,4.72
2024-01-11T03:39:08.150Z,4.72
2024-01-11T03:41:35.129Z,4.69
2024-01-11T03:44:02.038Z,4.69
2024-01-11T03:46:29.051Z,4.70
2024-01-11T03:48:57.194Z,4.70
2024-01-11T03:51:24.025Z,4.68
2024-01-11T03:53:50.986Z,4.70
2024-01-11T03:56:17.841Z,4.71
2024-01-11T03:58:46.374Z,4.73
2024-01-11T04:01:13.278Z,4.76
2024-01-11T04:03:40.314Z,4.76
2024-01-11T04:06:07.728Z,4.76
2024-01-11T04:08:34.972Z,4.76
2024-01-11T04:11:08.138Z,4.72
2024-01-11T04:13:34.895Z,4.74
2024-01-11T04:16:06.263Z,4.72
2024-01-11T04:18:33.290Z,4.75
2024-01-11T04:21:00.190Z,4.73
2024-01-11T04:23:27.027Z,4.72
2024-01-11T04:25:53.757Z,4.73
2024-01-11T04:28:20.508Z,4.73
2024-01-11T04:30:47.378Z,4.73
2024-01-11T04:33:14.294Z,4.71
2024-01-11T04:35:41.235Z,4.70
2024-01-11T04:38:07.996Z,4.68
2024-01-11T04:40:34.726Z,4.68
2024-01-11T04:43:01.434Z,4.66
2024-01-11T04:45:28.089Z,4.64
2024-01-11T04:47:55.069Z,4.64
2024-01-11T04:50:23.118Z,4.60
2024-01-11T04:52:50.113Z,4.57
2024-01-11T04:55:16.805Z,4.55
2024-01-11T04:57:43.536Z,4.54
2024-01-11T05:00:10.601Z,4.53
2024-01-11T05:02:37.444Z,4.52
2024-01-11T05:05:05.018Z,4.50
2024-01-11T05:07:31.853Z,4.50
2024-01-11T05:09:58.611Z,4.51
2024-01-11T05:12:25.469Z,4.51
2024-01-11T05:14:52.225Z,4.48
2024-01-11T05:17:18.992Z,4.48
2024-01-11T05:19:45.815Z,4.46
2024-01-11T05:22:12.603Z,4.46
2024-01-11T05:24:39.320Z,4.45
2024-01-11T05:27:06.164Z,4.42
2024-01-11T05:29:33.313Z,4.43
2024-01-11T05:32:00.174Z,4.43
2024-01-11T05:34:27.075Z,4.42
2024-01-11T05:36:53.814Z,4.40
2024-01-11T05:39:20.492Z,4.39
2024-01-11T05:41:47.274Z,4.39
2024-01-11T05:44:14.462Z,4.39
2024-01-11T05:46:41.132Z,4.38
2024-01-11T05:49:08.759Z,4.39
2024-01-11T05:51:35.535Z,4.41
2024-01-11T05:54:02.196Z,4.42
2024-01-11T05:56:29.001Z,4.42
2024-01-11T05:58:55.856Z,4.40
2024-01-11T06:01:22.828Z,4.39
2024-01-11T06:03:49.734Z,4.40
2024-01-11T06:06:16.580Z,4.40
2024-01-11T06:08:44.871Z,4.40
2024-01-11T06:11:11.780Z,4.42
2024-01-11T06:13:38.478Z,4.48
2024-01-11T06:16:05.238Z,4.51
2024-01-11T06:18:32.242Z,4.53
2024-01-11T06:20:59.015Z,4.55
2024-01-11T06:23:26.917Z,4.55
2024-01-11T06:25:53.872Z,4.57
2024-01-11T06:28:20.597Z,4.57
2024-01-11T06:30:47.341Z,4.56
2024-01-11T06:33:14.312Z,4.58
2024-01-11T06:35:41.368Z,4.58
2024-01-11T06:38:09.096Z,4.59
2024-01-11T06:40:35.947Z,4.58
2024-01-11T06:43:02.641Z,4.63
2024-01-11T06:45:29.373Z,4.62
2024-01-11T06:47:56.306Z,4.62
2024-01-11T06:50:23.279Z,4.61
2024-01-11T06:52:49.963Z,4.63
2024-01-11T06:55:16.971Z,4.63
2024-01-11T06:57:43.654Z,4.64
2024-01-11T07:00:11.378Z,4.64
2024-01-11T07:02:38.202Z,4.66
2024-01-11T07:05:05.264Z,4.68
2024-01-11T07:07:31.987Z,4.67
2024-01-11T07:09:58.774Z,4.67
2024-01-11T07:12:26.688Z,4.67
2024-01-11T07:14:53.430Z,4.68
2024-01-11T07:17:20.253Z,4.69
2024-01-11T07:19:47.017Z,4.70
2024-01-11T07:22:13.826Z,4.71
2024-01-11T07:24:40.609Z,4.71
2024-01-11T07:27:08.212Z,4.72
2024-01-11T07:29:35.065Z,4.75
2024-01-11T07:32:02.078Z,4.76
2024-01-11T07:34:29.535Z,4.79
2024-01-11T07:36:57.711Z,4.79
2024-01-11T07:39:25.667Z,4.81
2024-01-11T07:41:52.538Z,4.83
2024-01-11T07:44:19.731Z,4.83
2024-01-11T07:46:52.600Z,4.84
2024-01-11T07:49:21.774Z,4.83
2024-01-11T07:51:48.797Z,4.84
2024-01-11T07:54:15.553Z,4.87
2024-01-11T07:56:42.414Z,4.90
2024-01-11T07:59:09.236Z,4.91
2024-01-11T08:01:36.773Z,4.96
2024-01-11T08:04:04.279Z,5.01
2024-01-11T08:06:31.786Z,5.08
2024-01-11T08:08:58.612Z,5.14
2024-01-11T08:11:26.132Z,5.19
2024-01-11T08:13:56.014Z,5.25
2024-01-11T08:16:22.845Z,5.29
2024-01-11T08:18:50.362Z,5.34
2024-01-11T08:21:17.213Z,5.38
2024-01-11T08:23:46.632Z,5.42
2024-01-11T08:26:15.457Z,5.44
2024-01-11T08:28:43.186Z,5.45
2024-01-11T08:31:10.120Z,5.48
2024-01-11T08:33:40.047Z,5.50
2024-01-11T08:36:08.275Z,5.52
2024-01-11T08:38:36.874Z,5.53
2024-01-11T08:41:04.731Z,5.53
2024-01-11T08:43:31.689Z,5.54
2024-01-11T08:45:58.380Z,5.56
2024-01-11T08:48:25.374Z,5.60
2024-01-11T08:50:52.345Z,5.61
2024-01-11T08:53:19.142Z,5.65
2024-01-11T08:55:47.374Z,5.67
2024-01-11T08:58:14.740Z,5.70
2024-01-11T09:00:41.673Z,5.73
2024-01-11T09:03:08.769Z,5.75
2024-01-11T09:05:35.723Z,5.78
2024-01-11T09:08:02.589Z,5.83
2024-01-11T09:10:29.309Z,5.88
2024-01-11T09:12:56.234Z,5.91
2024-01-11T09:15:23.080Z,5.96
2024-01-11T09:17:50.814Z,6.00
2024-01-11T09:20:18.139Z,5.99
2024-01-11T09:22:45.005Z,6.01
2024-01-11T09:25:11.683Z,6.02
2024-01-11T09:27:38.400Z,6.02
2024-01-11T09:30:05.857Z,6.03
2024-01-11T09:32:32.884Z,6.07
2024-01-11T09:35:00.006Z,6.11
2024-01-11T09:37:27.130Z,6.17
2024-01-11T09:39:54.130Z,6.23
2024-01-11T09:42:20.823Z,6.25
2024-01-11T09:44:48.007Z,6.31
2024-01-11T09:47:18.992Z,6.36
2024-01-11T09:49:46.965Z,6.41
2024-01-11T09:52:16.014Z,6.47
2024-01-11T09:54:43.093Z,6.55
2024-01-11T09:57:10.884Z,6.62
2024-01-11T09:59:38.154Z,6.71
2024-01-11T10:02:09.508Z,6.77
2024-01-11T10:04:36.856Z,6.81
2024-01-11T10:07:07.381Z,6.88
2024-01-11T10:09:34.452Z,6.97
2024-01-11T10:12:01.192Z,7.06
2024-01-11T10:14:28.041Z,7.21
2024-01-11T10:16:56.172Z,7.40
2024-01-11T10:19:23.325Z,7.62
2024-01-11T10:21:50.187Z,7.82
2024-01-11T10:24:21.917Z,8.01
2024-01-11T10:26:49.031Z,8.16
2024-01-11T10:29:15.895Z,8.22
2024-01-11T10:31:42.628Z,8.31
2024-01-11T10:34:09.912Z,8.42
2024-01-11T10:36:37.578Z,8.57
2024-01-11T10:39:08.709Z,8.72
2024-01-11T10:41:44.074Z,8.85
2024-01-11T10:44:22.758Z,8.93
2024-01-11T10:46:57.212Z,8.96
2024-01-11T10:49:26.607Z,8.99
2024-01-11T10:52:01.734Z,9.08
2024-01-11T10:54:30.066Z,9.17
2024-01-11T10:57:00.340Z,9.23
2024-01-11T10:59:28.184Z,9.25
2024-01-11T11:01:57.460Z,9.27
2024-01-11T11:04:24.845Z,9.27
2024-01-11T11:06:58.404Z,9.23
2024-01-11T11:09:26.897Z,9.24
2024-01-11T11:11:59.777Z,9.20
2024-01-11T11:14:26.800Z,9.22
2024-01-11T11:16:54.265Z,9.20
2024-01-11T11:19:21.950Z,9.24
2024-01-11T11:21:49.728Z,9.26
2024-01-11T11:24:20.369Z,9.27
2024-01-11T11:26:47.810Z,9.26
2024-01-11T11:29:16.739Z,9.24
2024-01-11T11:31:44.881Z,9.28
2024-01-11T11:34:15.463Z,9.34
2024-01-11T11:36:43.707Z,9.45
2024-01-11T11:39:14.828Z,9.54
2024-01-11T11:41:43.873Z,9.60
2024-01-11T11:44:16.769Z,9.65
2024-01-11T11:46:45.110Z,9.65
2024-01-11T11:49:12.377Z,9.72
2024-01-11T11:51:42.311Z,9.79
2024-01-11T11:54:15.944Z,9.89
2024-01-11T11:56:43.519Z,9.97
2024-01-11T11:59:10.898Z,10.04
2024-01-11T12:01:39.828Z,10.04
2024-01-11T12:04:09.093Z,10.02
2024-01-11T12:06:36.044Z,10.04
2024-01-11T12:09:02.821Z,10.07
2024-01-11T12:11:30.515Z,10.09
2024-01-11T12:13:59.295Z,10.11
2024-01-11T12:16:26.218Z,10.09
2024-01-11T12:18:53.135Z,10.10
2024-01-11T12:21:21.232Z,10.10
2024-01-11T12:23:50.131Z,10.12
2024-01-11T12:26:23.991Z,10.16
2024-01-11T12:28:51.714Z,10.16
2024-01-11T12:31:20.391Z,10.17
2024-01-11T12:33:47.459Z,10.21
2024-01-11T12:36:14.232Z,10.23
2024-01-11T12:38:49.926Z,10.22
2024-01-11T12:41:19.266Z,10.25
2024-01-11T12:43:46.108Z,10.23
2024-01-11T12:46:12.891Z,10.23
2024-01-11T12:48:40.102Z,10.22
2024-01-11T12:51:14.410Z,10.15
2024-01-11T12:53:48.053Z,10.15
2024-01-11T12:56:16.625Z,10.13
2024-01-11T12:58:44.081Z,10.13
2024-01-11T13:01:11.960Z,10.14
2024-01-11T13:03:40.326Z,10.15
2024-01-11T13:06:07.712Z,10.14
2024-01-11T13:08:37.765Z,10.10
2024-01-11T13:11:08.325Z,10.10
2024-01-11T13:13:38.646Z,10.03
2024-01-11T13:16:12.558Z,9.96
2024-01-11T13:18:39.721Z,9.89
2024-01-11T13:21:08.050Z,9.78
2024-01-11T13:23:35.136Z,9.73
2024-01-11T13:26:03.536Z,9.70
2024-01-11T13:28:30.529Z,9.65
2024-01-11T13:30:58.176Z,9.61
2024-01-11T13:33:25.343Z,9.57
2024-01-11T13:35:52.441Z,9.54
2024-01-11T13:38:21.644Z,9.50
2024-01-11T13:40:50.804Z,9.45
2024-01-11T13:43:18.481Z,9.40
2024-01-11T13:45:46.083Z,9.33
2024-01-11T13:48:12.957Z,9.25
2024-01-11T13:50:39.873Z,9.10
2024-01-11T13:53:07.634Z,8.96
2024-01-11T13:55:41.356Z,8.81
2024-01-11T13:58:09.190Z,8.70
2024-01-11T14:00:36.327Z,8.67
2024-01-11T14:03:04.885Z,8.62
2024-01-11T14:05:31.975Z,8.60
2024-01-11T14:08:00.764Z,8.57
2024-01-11T14:10:28.500Z,8.58
2024-01-11T14:12:55.703Z,8.58
2024-01-11T14:15:22.592Z,8.58
2024-01-11T14:17:51.464Z,8.58
2024-01-11T14:20:18.905Z,8.63
2024-01-11T14:22:50.340Z,8.67
2024-01-11T14:25:19.000Z,8.66
2024-01-11T14:27:46.004Z,8.66
2024-01-11T14:30:14.826Z,8.62
2024-01-11T14:32:44.962Z,8.61
2024-01-11T14:35:12.511Z,8.60
2024-01-11T14:37:41.161Z,8.56
2024-01-11T14:40:12.090Z,8.47
2024-01-11T14:42:39.045Z,8.42
2024-01-11T14:45:06.752Z,8.36
2024-01-11T14:47:33.951Z,8.33
2024-01-11T14:50:01.028Z,8.35
2024-01-11T14:52:27.757Z,8.35
2024-01-11T14:54:54.519Z,8.37
2024-01-11T14:57:22.359Z,8.37
2024-01-11T14:59:49.433Z,8.38
2024-01-11T15:02:16.993Z,8.38
2024-01-11T15:04:43.803Z,8.38
2024-01-11T15:07:10.692Z,8.40
2024-01-11T15:09:40.001Z,8.42
2024-01-11T15:12:08.335Z,8.42
2024-01-11T15:14:35.268Z,8.42
2024-01-11T15:17:03.667Z,8.41
2024-01-11T15:19:31.238Z,8.43
2024-01-11T15:21:57.988Z,8.42
2024-01-11T15:24:24.696Z,8.44
2024-01-11T15:26:51.630Z,8.45
2024-01-11T15:29:18.763Z,8.45
2024-01-11T15:31:50.632Z,8.46
2024-01-11T15:34:17.654Z,8.45
2024-01-11T15:36:44.809Z,8.44
2024-01-11T15:39:21.165Z,8.39
2024-01-11T15:41:58.532Z,8.28
2024-01-11T15:44:27.963Z,8.17
2024-01-11T15:46:56.244Z,8.07
2024-01-11T15:49:23.816Z,8.00
2024-01-11T15:51:50.594Z,7.93
2024-01-11T15:54:17.322Z,7.89
2024-01-11T15:56:44.153Z,7.88
2024-01-11T15:59:10.971Z,7.87
2024-01-11T16:01:50.330Z,7.87
2024-01-11T16:04:24.098Z,7.84
2024-01-11T16:06:51.196Z,7.80
2024-01-11T16:09:18.125Z,7.81
2024-01-11T16:11:46.251Z,7.79
2024-01-11T16:14:13.048Z,7.76
2024-01-11T16:16:39.789Z,7.75
2024-01-11T16:19:06.716Z,7.74
2024-01-11T16:21:33.693Z,7.71
2024-01-11T16:24:03.113Z,7.69
2024-01-11T16:26:30.675Z,7.67
2024-01-11T16:28:58.143Z,7.66
2024-01-11T16:31:25.138Z,7.64
2024-01-11T16:33:51.893Z,7.62
2024-01-11T16:36:19.141Z,7.59
2024-01-11T16:38:46.414Z,7.54
2024-01-11T16:41:13.541Z,7.51
2024-01-11T16:43:40.994Z,7.44
2024-01-11T16:46:08.819Z,7.39
2024-01-11T16:48:35.839Z,7.35
2024-01-11T16:51:02.957Z,7.29
2024-01-11T16:53:29.760Z,7.26
2024-01-11T16:55:56.679Z,7.21
2024-01-11T16:58:23.445Z,7.17
2024-01-11T17:00:50.250Z,7.13
2024-01-11T17:03:17.489Z,7.10
2024-01-11T17:05:44.510Z,7.07
2024-01-11T17:08:11.312Z,7.02
2024-01-11T17:10:39.314Z,6.98
2024-01-11T17:13:06.068Z,6.95
2024-01-11T17:15:33.224Z,6.94
2024-01-11T17:18:00.282Z,6.92
2024-01-11T17:20:27.205Z,6.90
2024-01-11T17:22:55.161Z,6.88
2024-01-11T17:25:22.563Z,6.86
2024-01-11T17:27:49.500Z,6.86
2024-01-11T17:30:16.547Z,6.85
2024-01-11T17:32:43.580Z,6.82
2024-01-11T17:35:10.563Z,6.83
2024-01-11T17:37:37.585Z,6.79
2024-01-11T17:40:08.229Z,6.78
2024-01-11T17:42:35.146Z,6.76
2024-01-11T17:45:02.348Z,6.74
2024-01-11T17:47:29.567Z,6.74
2024-01-11T17:49:56.412Z,6.71
2024-01-11T17:52:23.122Z,6.72
2024-01-11T17:54:49.903Z,6.72
2024-01-11T17:57:16.570Z,6.68
2024-01-11T17:59:46.400Z,6.65
2024-01-11T18:02:13.297Z,6.65
2024-01-11T18:04:42.260Z,6.63
2024-01-11T18:07:09.138Z,6.62
2024-01-11T18:09:36.581Z,6.61
2024-01-11T18:12:03.503Z,6.62
2024-01-11T18:14:30.228Z,6.61
2024-01-11T18:16:57.002Z,6.60
2024-01-11T18:19:23.977Z,6.56
2024-01-11T18:21:50.744Z,6.54
2024-01-11T18:24:18.663Z,6.55
2024-01-11T18:26:45.538Z,6.53
2024-01-11T18:29:12.440Z,6.49
2024-01-11T18:31:39.962Z,6.48
2024-01-11T18:34:07.278Z,6.46
2024-01-11T18:36:44.943Z,6.41
2024-01-11T18:39:11.747Z,6.40
2024-01-11T18:41:38.926Z,6.37
2024-01-11T18:44:05.773Z,6.33
2024-01-11T18:46:32.581Z,6.30
2024-01-11T18:48:59.436Z,6.28
2024-01-11T18:51:27.461Z,6.25
2024-01-11T18:53:55.096Z,6.22
2024-01-11T18:56:21.864Z,6.19
2024-01-11T18:58:48.558Z,6.16
2024-01-11T19:01:15.260Z,6.13
2024-01-11T19:03:42.093Z,6.11
2024-01-11T19:06:09.245Z,6.08
2024-01-11T19:08:37.201Z,6.05
2024-01-11T19:11:04.268Z,6.03
2024-01-11T19:13:31.039Z,5.99
2024-01-11T19:15:57.758Z,5.94
2024-01-11T19:18:24.759Z,5.91
2024-01-11T19:20:54.800Z,5.89
2024-01-11T19:23:26.750Z,5.86
2024-01-11T19:25:57.561Z,5.82
2024-01-11T19:28:25.194Z,5.81
2024-01-11T19:30:52.505Z,5.81
2024-01-11T19:33:19.563Z,5.79
2024-01-11T19:35:46.641Z,5.76
2024-01-11T19:38:13.845Z,5.77
2024-01-11T19:40:43.539Z,5.78
2024-01-11T19:43:10.533Z,5.79
2024-01-11T19:45:37.542Z,5.79
2024-01-11T19:48:05.207Z,5.79
2024-01-11T19:50:34.414Z,5.82
2024-01-11T19:53:01.913Z,5.82
2024-01-11T19:55:28.643Z,5.81
2024-01-11T19:57:55.409Z,5.82
2024-01-11T20:00:22.971Z,5.82
2024-01-11T20:02:50.779Z,5.81
2024-01-11T20:05:17.591Z,5.79
2024-01-11T20:07:44.795Z,5.79
2024-01-11T20:10:12.511Z,5.78
2024-01-11T20:12:39.449Z,5.81
2024-01-11T20:15:08.524Z,5.81
2024-01-11T20:17:35.438Z,5.79
2024-01-11T20:20:02.380Z,5.80
2024-01-11T20:22:29.336Z,5.78
2024-01-11T20:24:56.302Z,5.80
2024-01-11T20:27:23.621Z,5.77
2024-01-11T20:29:50.544Z,5.78
2024-01-11T20:32:17.663Z,5.82
2024-01-11T20:34:44.798Z,5.86
2024-01-11T20:37:11.805Z,5.88
2024-01-11T20:39:39.308Z,5.89
2024-01-11T20:42:06.427Z,5.91
2024-01-11T20:44:36.694Z,5.95
2024-01-11T20:47:04.563Z,5.98
2024-01-11T20:49:31.407Z,5.98
2024-01-11T20:52:00.442Z,5.98
2024-01-11T20:54:27.760Z,5.96
2024-01-11T20:56:56.153Z,5.95
2024-01-11T20:59:23.176Z,5.91
2024-01-11T21:01:50.149Z,5.86
2024-01-11T21:04:16.889Z,5.84
2024-01-11T21:06:45.318Z,5.81
2024-01-11T21:09:13.678Z,5.79
2024-01-11T21:11:41.749Z,5.76
2024-01-11T21:14:08.958Z,5.73
2024-01-11T21:16:35.783Z,5.69
2024-01-11T21:19:06.444Z,5.68
2024-01-11T21:21:34.202Z,5.67
2024-01-11T21:24:02.593Z,5.67
2024-01-11T21:26:29.629Z,5.63
2024-01-11T21:28:57.143Z,5.60
2024-01-11T21:31:28.771Z,5.55
2024-01-11T21:33:55.969Z,5.52
2024-01-11T21:36:25.901Z,5.49
2024-01-11T21:38:56.002Z,5.44
2024-01-11T21:41:23.989Z,5.39
2024-01-11T21:43:52.266Z,5.35
2024-01-11T21:46:27.009Z,5.28
2024-01-11T21:48:54.393Z,5.23
2024-01-11T21:51:21.220Z,5.16
2024-01-11T21:53:47.957Z,5.13
2024-01-11T21:56:14.821Z,5.09
2024-01-11T21:58:42.014Z,5.04
2024-01-11T22:01:08.835Z,5.02
2024-01-11T22:03:37.041Z,5.00
2024-01-11T22:06:04.880Z,5.00
2024-01-11T22:08:32.047Z,4.99
2024-01-11T22:10:58.918Z,4.98
2024-01-11T22:13:25.631Z,4.94
2024-01-11T22:15:52.621Z,4.92
2024-01-11T22:18:19.496Z,4.90
2024-01-11T22:20:46.527Z,4.89
2024-01-11T22:23:13.322Z,4.91
2024-01-11T22:25:40.173Z,4.89
2024-01-11T22:28:06.920Z,4.88
2024-01-11T22:30:34.409Z,4.88
2024-01-11T22:33:02.889Z,4.86
2024-01-11T22:35:29.779Z,4.87
2024-01-11T22:37:56.567Z,4.87
2024-01-11T22:40:23.412Z,4.85
2024-01-11T22:42:50.090Z,4.86
2024-01-11T22:45:16.846Z,4.85
2024-01-11T22:47:43.594Z,4.84
2024-01-11T22:50:10.745Z,4.83
2024-01-11T22:52:37.960Z,4.82
2024-01-11T22:55:05.718Z,4.81
2024-01-11T22:57:33.093Z,4.81
2024-01-11T22:59:59.825Z,4.82
2024-01-11T23:02:27.233Z,4.80
2024-01-11T23:04:54.088Z,4.82
2024-01-11T23:07:20.778Z,4.82
2024-01-11T23:09:47.628Z,4.82
2024-01-11T23:12:14.356Z,4.83
2024-01-11T23:14:41.229Z,4.83
2024-01-11T23:17:07.891Z,4.84
2024-01-11T23:19:34.823Z,4.84
2024-01-11T23:22:01.636Z,4.83
2024-01-11T23:24:28.342Z,4.83
2024-01-11T23:26:55.327Z,4.83
2024-01-11T23:29:22.221Z,4.81
2024-01-11T23:31:49.416Z,4.79
2024-01-11T23:34:16.428Z,4.77
2024-01-11T23:36:43.385Z,4.76
2024-01-11T23:39:10.054Z,4.74
2024-01-11T23:41:36.809Z,4.75
2024-01-11T23:44:03.662Z,4.72
2024-01-11T23:46:30.494Z,4.72
2024-01-11T23:48:57.410Z,4.73
2024-01-11T23:51:24.424Z,4.74
2024-01-11T23:53:51.351Z,4.74
2024-01-11T23:56:18.179Z,4.74
2024-01-11T23:58:44.944Z,4.74
